createdAt,value
2018-05-11T00:00:11.144Z,0
2018-05-11T00:01:10.901Z,0
2018-05-11T00:02:11.139Z,0
2018-05-11T00:03:10.919Z,0
2018-05-11T00:04:10.893Z,0
2018-05-11T00:05:10.882Z,0
2018-05-11T00:06:10.899Z,0
2018-05-11T00:07:11.418Z,0
2018-05-11T00:08:11.373Z,0
2018-05-11T00:09:11.125Z,0
2018-05-11T00:10:11.141Z,0
2018-05-11T00:11:11.150Z,0
2018-05-11T00:12:11.352Z,0
2018-05-11T00:13:11.145Z,0
2018-05-11T00:14:10.833Z,0
2018-05-11T00:15:10.873Z,0
2018-05-11T00:16:11.078Z,0
2018-05-11T00:17:11.086Z,0
2018-05-11T00:18:11.111Z,0
2018-05-11T00:19:11.305Z,0
2018-05-11T00:20:11.329Z,0
2018-05-11T00:21:11.068Z,0
2018-05-11T00:22:11.081Z,0
2018-05-11T00:23:10.825Z,0
2018-05-11T00:24:11.046Z,0
2018-05-11T00:25:11.066Z,0
2018-05-11T00:26:11.028Z,0
2018-05-11T00:27:11.066Z,0
2018-05-11T00:28:11.025Z,0
2018-05-11T00:29:10.782Z,0
2018-05-11T00:30:11.318Z,0
2018-05-11T00:31:11.022Z,0
2018-05-11T00:32:10.535Z,0
2018-05-11T00:33:10.564Z,0
2018-05-11T00:34:10.792Z,0
2018-05-11T00:35:11.003Z,0
2018-05-11T00:36:11.020Z,0
2018-05-11T00:37:10.489Z,0
2018-05-11T00:38:11.015Z,0
2018-05-11T00:39:11.019Z,0
2018-05-11T00:40:11.259Z,0
2018-05-11T00:41:11.238Z,0
2018-05-11T00:42:10.693Z,0
2018-05-11T00:43:11.261Z,0
2018-05-11T00:44:10.456Z,0
2018-05-11T00:45:10.738Z,0
2018-05-11T00:46:11.207Z,0
2018-05-11T00:47:11.067Z,0
2018-05-11T00:48:10.950Z,0
2018-05-11T00:49:10.972Z,0
2018-05-11T00:50:10.933Z,0
2018-05-11T00:51:11.709Z,0
2018-05-11T00:52:10.942Z,0
2018-05-11T00:53:10.681Z,0
2018-05-11T00:54:10.915Z,0
2018-05-11T00:55:11.205Z,0
2018-05-11T00:56:10.904Z,0
2018-05-11T00:57:11.174Z,0
2018-05-11T00:58:11.152Z,0
2018-05-11T00:59:10.924Z,0
2018-05-11T01:00:11.175Z,0
2018-05-11T01:01:10.934Z,0
2018-05-11T01:02:10.877Z,0
2018-05-11T01:03:10.916Z,0
2018-05-11T01:04:11.139Z,0
2018-05-11T01:05:10.901Z,0
2018-05-11T01:06:10.865Z,0
2018-05-11T01:07:11.158Z,0
2018-05-11T01:08:11.136Z,0
2018-05-11T01:09:10.870Z,0
2018-05-11T01:10:10.599Z,0
2018-05-11T01:11:10.846Z,0
2018-05-11T01:12:11.120Z,0
2018-05-11T01:13:10.596Z,0
2018-05-11T01:14:11.152Z,0
2018-05-11T01:15:11.069Z,0
2018-05-11T01:16:11.123Z,0
2018-05-11T01:17:11.354Z,0
2018-05-11T01:18:10.849Z,0
2018-05-11T01:19:10.538Z,0
2018-05-11T01:20:10.823Z,0
2018-05-11T01:21:10.815Z,0
2018-05-11T01:22:10.541Z,0
2018-05-11T01:23:11.088Z,0
2018-05-11T01:24:11.062Z,0
2018-05-11T01:25:11.058Z,0
2018-05-11T01:26:11.029Z,0
2018-05-11T01:27:10.247Z,0
2018-05-11T01:28:10.533Z,0
2018-05-11T01:29:10.773Z,0
2018-05-11T01:30:10.559Z,0
2018-05-11T01:31:10.999Z,0
2018-05-11T01:32:10.249Z,0
2018-05-11T01:33:10.737Z,0
2018-05-11T01:34:11.026Z,0
2018-05-11T01:35:10.980Z,0
2018-05-11T01:36:10.770Z,0
2018-05-11T01:37:10.999Z,0
2018-05-11T01:38:10.763Z,0
2018-05-11T01:39:10.441Z,0
2018-05-11T01:40:10.204Z,0
2018-05-11T01:41:10.719Z,0
2018-05-11T01:42:10.471Z,0
2018-05-11T01:43:10.729Z,0
2018-05-11T01:44:10.444Z,0
2018-05-11T01:45:10.690Z,0
2018-05-11T01:46:10.712Z,0
2018-05-11T01:47:10.937Z,0
2018-05-11T01:48:10.692Z,0
2018-05-11T01:49:10.653Z,0
2018-05-11T01:50:10.440Z,0
2018-05-11T01:51:10.908Z,0
2018-05-11T01:52:10.698Z,0
2018-05-11T01:53:10.671Z,0
2018-05-11T01:54:10.927Z,0
2018-05-11T01:55:10.874Z,0
2018-05-11T01:56:10.385Z,0
2018-05-11T01:57:10.381Z,0
2018-05-11T01:58:10.912Z,0
2018-05-11T01:59:10.361Z,0
2018-05-11T02:00:10.122Z,0
2018-05-11T02:01:10.619Z,0
2018-05-11T02:02:10.388Z,0
2018-05-11T02:03:10.844Z,0
2018-05-11T02:04:10.624Z,0
2018-05-11T02:05:10.336Z,0
2018-05-11T02:06:10.875Z,0
2018-05-11T02:07:10.567Z,0
2018-05-11T02:08:10.617Z,0
2018-05-11T02:09:10.328Z,0
2018-05-11T02:10:10.856Z,0
2018-05-11T02:11:10.553Z,0
2018-05-11T02:12:10.579Z,0
2018-05-11T02:13:10.562Z,0
2018-05-11T02:14:09.781Z,0
2018-05-11T02:15:10.535Z,0
2018-05-11T02:16:10.816Z,0
2018-05-11T02:17:10.553Z,0
2018-05-11T02:18:10.825Z,0
2018-05-11T02:19:10.772Z,0
2018-05-11T02:20:10.807Z,0
2018-05-11T02:21:10.751Z,0
2018-05-11T02:22:10.285Z,0
2018-05-11T02:23:10.491Z,0
2018-05-11T02:24:10.797Z,0
2018-05-11T02:25:10.514Z,0
2018-05-11T02:26:10.733Z,0
2018-05-11T02:27:10.472Z,0
2018-05-11T02:28:10.481Z,0
2018-05-11T02:29:09.984Z,0
2018-05-11T02:30:10.248Z,0
2018-05-11T02:31:10.516Z,0
2018-05-11T02:32:10.210Z,0
2018-05-11T02:33:10.738Z,0
2018-05-11T02:34:10.465Z,0
2018-05-11T02:35:10.759Z,0
2018-05-11T02:36:10.450Z,0
2018-05-11T02:37:10.730Z,0
2018-05-11T02:38:10.464Z,0
2018-05-11T02:39:10.433Z,0
2018-05-11T02:40:10.744Z,0
2018-05-11T02:41:10.434Z,0
2018-05-11T02:42:10.444Z,0
2018-05-11T02:43:10.407Z,0
2018-05-11T02:44:10.406Z,0
2018-05-11T02:45:10.419Z,0
2018-05-11T02:46:10.453Z,0
2018-05-11T02:47:10.436Z,0
2018-05-11T02:48:10.400Z,0
2018-05-11T02:49:10.388Z,0
2018-05-11T02:50:09.855Z,0
2018-05-11T02:51:10.669Z,0
2018-05-11T02:52:10.653Z,0
2018-05-11T02:53:10.667Z,0
2018-05-11T02:54:10.102Z,0
2018-05-11T02:55:10.128Z,0
2018-05-11T02:56:10.078Z,0
2018-05-11T02:57:10.618Z,0
2018-05-11T02:58:10.071Z,0
2018-05-11T02:59:10.139Z,0
2018-05-11T03:00:10.421Z,0
2018-05-11T03:01:10.341Z,0
2018-05-11T03:02:10.058Z,0
2018-05-11T03:03:10.370Z,0
2018-05-11T03:04:10.313Z,0
2018-05-11T03:05:10.608Z,0
2018-05-11T03:06:10.542Z,0
2018-05-11T03:07:10.331Z,0
2018-05-11T03:08:10.582Z,0
2018-05-11T03:09:10.583Z,0
2018-05-11T03:10:10.276Z,0
2018-05-11T03:11:10.663Z,0
2018-05-11T03:12:10.244Z,0
2018-05-11T03:13:10.284Z,0
2018-05-11T03:14:09.739Z,0
2018-05-11T03:15:10.297Z,0
2018-05-11T03:16:10.523Z,0
2018-05-11T03:17:10.505Z,0
2018-05-11T03:18:10.479Z,0
2018-05-11T03:19:10.472Z,0
2018-05-11T03:20:10.517Z,0
2018-05-11T03:21:10.229Z,0
2018-05-11T03:22:10.255Z,0
2018-05-11T03:23:10.451Z,0
2018-05-11T03:24:09.971Z,0
2018-05-11T03:25:10.432Z,0
2018-05-11T03:26:10.491Z,0
2018-05-11T03:27:09.918Z,0
2018-05-11T03:28:09.943Z,0
2018-05-11T03:29:10.191Z,0
2018-05-11T03:30:10.167Z,0
2018-05-11T03:31:10.470Z,0
2018-05-11T03:32:09.670Z,0
2018-05-11T03:33:10.425Z,0
2018-05-11T03:34:10.394Z,0
2018-05-11T03:35:09.877Z,0
2018-05-11T03:36:10.169Z,0
2018-05-11T03:37:10.145Z,0
2018-05-11T03:38:09.908Z,0
2018-05-11T03:39:10.114Z,0
2018-05-11T03:40:09.882Z,0
2018-05-11T03:41:10.126Z,0
2018-05-11T03:42:10.358Z,0
2018-05-11T03:43:10.229Z,0
2018-05-11T03:44:10.329Z,0
2018-05-11T03:45:10.359Z,0
2018-05-11T03:46:10.087Z,0
2018-05-11T03:47:10.385Z,0
2018-05-11T03:48:10.436Z,0
2018-05-11T03:49:10.349Z,0
2018-05-11T03:50:10.060Z,0
2018-05-11T03:51:09.794Z,0
2018-05-11T03:52:10.344Z,0
2018-05-11T03:53:10.330Z,5
2018-05-11T03:54:10.046Z,5
2018-05-11T03:55:10.338Z,5
2018-05-11T03:56:09.524Z,5
2018-05-11T03:57:10.325Z,5
2018-05-11T03:58:10.308Z,5
2018-05-11T03:59:10.055Z,5
2018-05-11T04:00:10.456Z,5
2018-05-11T04:01:10.030Z,10
2018-05-11T04:02:09.490Z,10
2018-05-11T04:03:10.297Z,10
2018-05-11T04:04:10.275Z,10
2018-05-11T04:05:10.259Z,10
2018-05-11T04:06:10.236Z,10
2018-05-11T04:07:09.979Z,10
2018-05-11T04:08:10.005Z,10
2018-05-11T04:09:09.730Z,15
2018-05-11T04:10:10.000Z,15
2018-05-11T04:11:09.765Z,15
2018-05-11T04:12:09.976Z,15
2018-05-11T04:13:10.355Z,15
2018-05-11T04:14:10.016Z,20
2018-05-11T04:15:09.672Z,20
2018-05-11T04:16:09.973Z,20
2018-05-11T04:17:09.682Z,25
2018-05-11T04:18:09.689Z,30
2018-05-11T04:19:09.654Z,30
2018-05-11T04:20:09.929Z,30
2018-05-11T04:21:09.671Z,30
2018-05-11T04:22:10.152Z,30
2018-05-11T04:23:09.372Z,30
2018-05-11T04:24:09.916Z,30
2018-05-11T04:25:10.164Z,30
2018-05-11T04:26:10.178Z,35
2018-05-11T04:27:09.855Z,30
2018-05-11T04:28:10.154Z,35
2018-05-11T04:29:10.094Z,35
2018-05-11T04:30:09.500Z,40
2018-05-11T04:31:09.331Z,50
2018-05-11T04:32:10.146Z,55
2018-05-11T04:33:09.852Z,65
2018-05-11T04:34:10.116Z,60
2018-05-11T04:35:09.886Z,55
2018-05-11T04:36:09.830Z,55
2018-05-11T04:37:10.178Z,50
2018-05-11T04:38:09.840Z,50
2018-05-11T04:39:10.097Z,50
2018-05-11T04:40:09.549Z,60
2018-05-11T04:41:09.802Z,60
2018-05-11T04:42:10.028Z,60
2018-05-11T04:43:09.824Z,60
2018-05-11T04:44:10.038Z,60
2018-05-11T04:45:10.051Z,60
2018-05-11T04:46:10.066Z,65
2018-05-11T04:47:10.018Z,60
2018-05-11T04:48:10.059Z,65
2018-05-11T04:49:10.024Z,65
2018-05-11T04:50:10.037Z,55
2018-05-11T04:51:09.732Z,55
2018-05-11T04:52:09.993Z,50
2018-05-11T04:53:09.491Z,45
2018-05-11T04:54:10.013Z,45
2018-05-11T04:55:09.773Z,45
2018-05-11T04:56:09.209Z,45
2018-05-11T04:57:09.724Z,45
2018-05-11T04:58:09.693Z,50
2018-05-11T04:59:09.997Z,45
2018-05-11T05:00:09.192Z,45
2018-05-11T05:01:09.990Z,45
2018-05-11T05:02:09.941Z,45
2018-05-11T05:03:09.987Z,45
2018-05-11T05:04:09.916Z,45
2018-05-11T05:05:09.936Z,45
2018-05-11T05:06:09.410Z,50
2018-05-11T05:07:09.960Z,55
2018-05-11T05:08:08.905Z,55
2018-05-11T05:09:09.916Z,55
2018-05-11T05:10:09.390Z,60
2018-05-11T05:11:09.939Z,70
2018-05-11T05:12:09.639Z,75
2018-05-11T05:13:09.892Z,75
2018-05-11T05:14:09.619Z,75
2018-05-11T05:15:09.655Z,75
2018-05-11T05:16:09.614Z,70
2018-05-11T05:17:09.908Z,65
2018-05-11T05:18:09.600Z,60
2018-05-11T05:19:10.276Z,65
2018-05-11T05:20:09.333Z,70
2018-05-11T05:21:09.606Z,70
2018-05-11T05:22:09.329Z,75
2018-05-11T05:23:09.626Z,70
2018-05-11T05:24:09.847Z,75
2018-05-11T05:25:09.577Z,80
2018-05-11T05:26:09.833Z,80
2018-05-11T05:27:09.796Z,85
2018-05-11T05:28:09.526Z,80
2018-05-11T05:29:09.822Z,80
2018-05-11T05:30:09.578Z,70
2018-05-11T05:31:09.778Z,65
2018-05-11T05:32:09.547Z,65
2018-05-11T05:33:10.188Z,60
2018-05-11T05:34:09.831Z,60
2018-05-11T05:35:09.502Z,60
2018-05-11T05:36:09.277Z,55
2018-05-11T05:37:09.829Z,60
2018-05-11T05:38:09.745Z,65
2018-05-11T05:39:09.917Z,70
2018-05-11T05:40:09.509Z,70
2018-05-11T05:41:09.240Z,75
2018-05-11T05:42:09.741Z,75
2018-05-11T05:43:09.713Z,75
2018-05-11T05:44:09.494Z,75
2018-05-11T05:45:09.736Z,80
2018-05-11T05:46:09.765Z,90
2018-05-11T05:47:09.726Z,90
2018-05-11T05:48:09.047Z,85
2018-05-11T05:49:09.676Z,85
2018-05-11T05:50:09.727Z,95
2018-05-11T05:51:09.462Z,95
2018-05-11T05:52:09.923Z,95
2018-05-11T05:53:09.689Z,95
2018-05-11T05:54:09.793Z,110
2018-05-11T05:55:09.486Z,110
2018-05-11T05:56:09.160Z,100
2018-05-11T05:57:09.410Z,110
2018-05-11T05:58:09.438Z,125
2018-05-11T05:59:09.442Z,120
2018-05-11T06:00:09.939Z,100
2018-05-11T06:01:09.663Z,100
2018-05-11T06:02:09.681Z,115
2018-05-11T06:03:09.633Z,125
2018-05-11T06:04:09.404Z,130
2018-05-11T06:05:09.684Z,135
2018-05-11T06:06:09.649Z,125
2018-05-11T06:07:09.592Z,125
2018-05-11T06:08:09.839Z,130
2018-05-11T06:09:09.368Z,125
2018-05-11T06:10:09.105Z,125
2018-05-11T06:11:09.065Z,130
2018-05-11T06:12:09.329Z,120
2018-05-11T06:13:09.596Z,95
2018-05-11T06:14:09.095Z,80
2018-05-11T06:15:09.608Z,80
2018-05-11T06:16:09.313Z,80
2018-05-11T06:17:09.572Z,80
2018-05-11T06:18:09.538Z,80
2018-05-11T06:19:09.591Z,85
2018-05-11T06:20:09.312Z,85
2018-05-11T06:21:09.075Z,85
2018-05-11T06:22:09.946Z,100
2018-05-11T06:23:09.596Z,110
2018-05-11T06:24:09.307Z,130
2018-05-11T06:25:09.546Z,155
2018-05-11T06:26:09.527Z,180
2018-05-11T06:27:09.556Z,195
2018-05-11T06:28:09.263Z,215
2018-05-11T06:29:09.532Z,240
2018-05-11T06:30:09.536Z,265
2018-05-11T06:31:09.280Z,270
2018-05-11T06:32:09.243Z,265
2018-05-11T06:33:09.239Z,265
2018-05-11T06:34:09.215Z,235
2018-05-11T06:35:09.262Z,210
2018-05-11T06:36:09.224Z,185
2018-05-11T06:37:09.523Z,185
2018-05-11T06:38:09.459Z,185
2018-05-11T06:39:09.245Z,145
2018-05-11T06:40:09.436Z,135
2018-05-11T06:41:09.477Z,135
2018-05-11T06:42:09.444Z,135
2018-05-11T06:43:08.977Z,140
2018-05-11T06:44:09.473Z,165
2018-05-11T06:45:08.685Z,175
2018-05-11T06:46:08.889Z,185
2018-05-11T06:47:09.163Z,175
2018-05-11T06:48:09.190Z,170
2018-05-11T06:49:09.438Z,165
2018-05-11T06:50:09.199Z,170
2018-05-11T06:51:09.402Z,170
2018-05-11T06:52:09.426Z,175
2018-05-11T06:53:09.412Z,180
2018-05-11T06:54:08.879Z,160
2018-05-11T06:55:09.179Z,165
2018-05-11T06:56:09.394Z,160
2018-05-11T06:57:09.158Z,165
2018-05-11T06:58:09.133Z,170
2018-05-11T06:59:09.420Z,160
2018-05-11T07:00:09.166Z,165
2018-05-11T07:01:09.463Z,175
2018-05-11T07:02:09.103Z,180
2018-05-11T07:03:09.340Z,165
2018-05-11T07:04:09.374Z,160
2018-05-11T07:05:09.104Z,170
2018-05-11T07:06:08.833Z,170
2018-05-11T07:07:09.126Z,160
2018-05-11T07:08:09.612Z,160
2018-05-11T07:09:09.387Z,170
2018-05-11T07:10:09.350Z,180
2018-05-11T07:11:08.846Z,195
2018-05-11T07:12:09.331Z,185
2018-05-11T07:13:08.818Z,190
2018-05-11T07:14:09.065Z,210
2018-05-11T07:15:09.091Z,245
2018-05-11T07:16:08.559Z,275
2018-05-11T07:17:08.811Z,270
2018-05-11T07:18:09.375Z,265
2018-05-11T07:19:09.078Z,255
2018-05-11T07:20:09.046Z,270
2018-05-11T07:21:08.780Z,290
2018-05-11T07:22:09.281Z,315
2018-05-11T07:23:09.064Z,340
2018-05-11T07:24:08.767Z,340
2018-05-11T07:25:09.313Z,360
2018-05-11T07:26:09.009Z,375
2018-05-11T07:27:09.036Z,375
2018-05-11T07:28:09.006Z,380
2018-05-11T07:29:09.055Z,345
2018-05-11T07:30:09.064Z,325
2018-05-11T07:31:09.046Z,300
2018-05-11T07:32:09.285Z,295
2018-05-11T07:33:09.255Z,275
2018-05-11T07:34:09.253Z,245
2018-05-11T07:35:09.590Z,245
2018-05-11T07:36:08.994Z,250
2018-05-11T07:37:09.233Z,255
2018-05-11T07:38:09.008Z,265
2018-05-11T07:39:09.219Z,285
2018-05-11T07:40:09.240Z,305
2018-05-11T07:41:08.948Z,310
2018-05-11T07:42:08.977Z,300
2018-05-11T07:43:09.241Z,290
2018-05-11T07:44:09.024Z,280
2018-05-11T07:45:08.967Z,270
2018-05-11T07:46:09.184Z,260
2018-05-11T07:47:08.727Z,235
2018-05-11T07:48:08.961Z,220
2018-05-11T07:49:08.941Z,210
2018-05-11T07:50:09.208Z,210
2018-05-11T07:51:08.660Z,225
2018-05-11T07:52:08.951Z,240
2018-05-11T07:53:08.163Z,240
2018-05-11T07:54:08.977Z,230
2018-05-11T07:55:08.898Z,220
2018-05-11T07:56:08.412Z,215
2018-05-11T07:57:08.887Z,225
2018-05-11T07:58:08.935Z,225
2018-05-11T07:59:08.881Z,215
2018-05-11T08:00:08.681Z,205
2018-05-11T08:01:09.177Z,205
2018-05-11T08:02:08.912Z,210
2018-05-11T08:03:09.117Z,205
2018-05-11T08:04:09.664Z,210
2018-05-11T08:05:08.899Z,210
2018-05-11T08:06:08.891Z,210
2018-05-11T08:07:08.908Z,205
2018-05-11T08:08:08.867Z,210
2018-05-11T08:09:08.878Z,210
2018-05-11T08:10:08.635Z,205
2018-05-11T08:11:08.636Z,195
2018-05-11T08:12:08.879Z,200
2018-05-11T08:13:08.859Z,205
2018-05-11T08:14:08.999Z,200
2018-05-11T08:15:09.126Z,195
2018-05-11T08:16:08.890Z,195
2018-05-11T08:17:09.362Z,200
2018-05-11T08:18:09.119Z,205
2018-05-11T08:19:08.847Z,210
2018-05-11T08:20:08.826Z,205
2018-05-11T08:21:09.103Z,205
2018-05-11T08:22:08.660Z,205
2018-05-11T08:23:08.352Z,205
2018-05-11T08:24:08.822Z,210
2018-05-11T08:25:09.114Z,215
2018-05-11T08:26:08.796Z,225
2018-05-11T08:27:08.683Z,240
2018-05-11T08:28:08.823Z,250
2018-05-11T08:29:09.095Z,255
2018-05-11T08:30:08.794Z,245
2018-05-11T08:31:08.563Z,245
2018-05-11T08:32:08.779Z,245
2018-05-11T08:33:08.806Z,245
2018-05-11T08:34:08.779Z,245
2018-05-11T08:35:08.308Z,245
2018-05-11T08:36:08.797Z,245
2018-05-11T08:37:08.802Z,245
2018-05-11T08:38:08.832Z,240
2018-05-11T08:39:09.054Z,240
2018-05-11T08:40:08.790Z,245
2018-05-11T08:41:08.778Z,250
2018-05-11T08:42:08.999Z,255
2018-05-11T08:43:09.059Z,255
2018-05-11T08:44:08.769Z,260
2018-05-11T08:45:08.539Z,270
2018-05-11T08:46:08.757Z,300
2018-05-11T08:47:08.803Z,330
2018-05-11T08:48:08.773Z,360
2018-05-11T08:49:09.022Z,380
2018-05-11T08:50:09.026Z,385
2018-05-11T08:51:08.725Z,395
2018-05-11T08:52:08.756Z,395
2018-05-11T08:53:08.736Z,380
2018-05-11T08:54:08.744Z,375
2018-05-11T08:55:09.069Z,390
2018-05-11T08:56:08.719Z,420
2018-05-11T08:57:09.093Z,445
2018-05-11T08:58:08.715Z,440
2018-05-11T08:59:08.753Z,440
2018-05-11T09:00:08.712Z,455
2018-05-11T09:01:08.460Z,455
2018-05-11T09:02:08.480Z,415
2018-05-11T09:03:09.315Z,370
2018-05-11T09:04:08.990Z,355
2018-05-11T09:05:08.948Z,350
2018-05-11T09:06:09.028Z,355
2018-05-11T09:07:08.161Z,350
2018-05-11T09:08:08.683Z,325
2018-05-11T09:09:08.955Z,310
2018-05-11T09:10:08.508Z,305
2018-05-11T09:11:08.713Z,310
2018-05-11T09:12:08.434Z,310
2018-05-11T09:13:08.674Z,305
2018-05-11T09:14:08.652Z,290
2018-05-11T09:15:08.979Z,280
2018-05-11T09:16:08.668Z,275
2018-05-11T09:17:08.961Z,270
2018-05-11T09:18:08.909Z,260
2018-05-11T09:19:08.696Z,240
2018-05-11T09:20:08.669Z,225
2018-05-11T09:21:08.687Z,220
2018-05-11T09:22:08.683Z,225
2018-05-11T09:23:08.174Z,235
2018-05-11T09:24:08.700Z,235
2018-05-11T09:25:08.451Z,230
2018-05-11T09:26:08.697Z,220
2018-05-11T09:27:09.041Z,210
2018-05-11T09:28:08.645Z,215
2018-05-11T09:29:08.665Z,230
2018-05-11T09:30:08.640Z,245
2018-05-11T09:31:08.707Z,265
2018-05-11T09:32:08.632Z,275
2018-05-11T09:33:08.965Z,285
2018-05-11T09:34:08.878Z,290
2018-05-11T09:35:08.934Z,285
2018-05-11T09:36:08.871Z,280
2018-05-11T09:37:08.887Z,270
2018-05-11T09:38:08.362Z,270
2018-05-11T09:39:08.673Z,275
2018-05-11T09:40:08.643Z,285
2018-05-11T09:41:08.635Z,305
2018-05-11T09:42:08.612Z,345
2018-05-11T09:43:08.600Z,410
2018-05-11T09:44:08.377Z,440
2018-05-11T09:45:08.620Z,415
2018-05-11T09:46:08.649Z,385
2018-05-11T09:47:08.095Z,365
2018-05-11T09:48:08.365Z,355
2018-05-11T09:49:08.935Z,365
2018-05-11T09:50:08.703Z,395
2018-05-11T09:51:08.601Z,425
2018-05-11T09:52:08.606Z,465
2018-05-11T09:53:08.856Z,500
2018-05-11T09:54:08.328Z,530
2018-05-11T09:55:08.891Z,560
2018-05-11T09:56:08.609Z,615
2018-05-11T09:57:08.608Z,650
2018-05-11T09:58:08.318Z,680
2018-05-11T09:59:08.570Z,695
2018-05-11T10:00:08.603Z,675
2018-05-11T10:01:08.610Z,640
2018-05-11T10:02:08.616Z,575
2018-05-11T10:03:08.552Z,510
2018-05-11T10:04:08.596Z,455
2018-05-11T10:05:08.553Z,440
2018-05-11T10:06:08.840Z,445
2018-05-11T10:07:08.830Z,455
2018-05-11T10:08:08.596Z,440
2018-05-11T10:09:08.593Z,405
2018-05-11T10:10:08.602Z,405
2018-05-11T10:11:08.291Z,440
2018-05-11T10:12:08.810Z,475
2018-05-11T10:13:08.305Z,500
2018-05-11T10:14:08.605Z,520
2018-05-11T10:15:08.859Z,520
2018-05-11T10:16:08.565Z,495
2018-05-11T10:17:09.033Z,455
2018-05-11T10:18:08.858Z,435
2018-05-11T10:19:08.553Z,435
2018-05-11T10:20:08.582Z,455
2018-05-11T10:21:08.793Z,495
2018-05-11T10:22:08.639Z,535
2018-05-11T10:23:08.539Z,545
2018-05-11T10:24:08.328Z,520
2018-05-11T10:25:08.050Z,495
2018-05-11T10:26:08.898Z,495
2018-05-11T10:27:08.553Z,505
2018-05-11T10:28:08.051Z,515
2018-05-11T10:29:08.862Z,515
2018-05-11T10:30:08.329Z,490
2018-05-11T10:31:08.792Z,450
2018-05-11T10:32:08.831Z,430
2018-05-11T10:33:08.578Z,415
2018-05-11T10:34:08.597Z,390
2018-05-11T10:35:08.796Z,360
2018-05-11T10:36:08.586Z,330
2018-05-11T10:37:08.776Z,310
2018-05-11T10:38:08.309Z,300
2018-05-11T10:39:08.793Z,315
2018-05-11T10:40:08.619Z,340
2018-05-11T10:41:08.564Z,365
2018-05-11T10:42:08.841Z,370
2018-05-11T10:43:08.810Z,360
2018-05-11T10:44:08.070Z,350
2018-05-11T10:45:08.313Z,350
2018-05-11T10:46:08.866Z,350
2018-05-11T10:47:08.529Z,365
2018-05-11T10:48:08.600Z,380
2018-05-11T10:49:08.562Z,405
2018-05-11T10:50:08.848Z,425
2018-05-11T10:51:08.794Z,435
2018-05-11T10:52:08.557Z,445
2018-05-11T10:53:08.541Z,450
2018-05-11T10:54:08.640Z,455
2018-05-11T10:55:08.568Z,450
2018-05-11T10:56:08.596Z,445
2018-05-11T10:57:08.029Z,440
2018-05-11T10:58:08.584Z,415
2018-05-11T10:59:08.782Z,380
2018-05-11T11:00:08.277Z,340
2018-05-11T11:01:08.541Z,315
2018-05-11T11:02:08.567Z,305
2018-05-11T11:03:08.569Z,305
2018-05-11T11:04:08.550Z,310
2018-05-11T11:05:08.802Z,315
2018-05-11T11:06:08.769Z,310
2018-05-11T11:07:08.309Z,295
2018-05-11T11:08:08.380Z,270
2018-05-11T11:09:08.799Z,245
2018-05-11T11:10:08.293Z,225
2018-05-11T11:11:08.265Z,230
2018-05-11T11:12:08.312Z,245
2018-05-11T11:13:08.551Z,265
2018-05-11T11:14:08.831Z,270
2018-05-11T11:15:08.266Z,265
2018-05-11T11:16:08.779Z,260
2018-05-11T11:17:08.555Z,250
2018-05-11T11:18:08.545Z,240
2018-05-11T11:19:08.655Z,250
2018-05-11T11:20:09.226Z,250
2018-05-11T11:21:08.275Z,260
2018-05-11T11:22:08.775Z,275
2018-05-11T11:23:08.293Z,285
2018-05-11T11:24:08.525Z,295
2018-05-11T11:25:08.318Z,300
2018-05-11T11:26:08.520Z,300
2018-05-11T11:27:08.293Z,310
2018-05-11T11:28:08.271Z,310
2018-05-11T11:29:08.785Z,305
2018-05-11T11:30:08.257Z,295
2018-05-11T11:31:08.566Z,295
2018-05-11T11:32:08.532Z,295
2018-05-11T11:33:08.523Z,300
2018-05-11T11:34:08.766Z,310
2018-05-11T11:35:08.801Z,320
2018-05-11T11:36:08.768Z,325
2018-05-11T11:37:08.787Z,330
2018-05-11T11:38:08.743Z,325
2018-05-11T11:39:08.795Z,325
2018-05-11T11:40:08.490Z,335
2018-05-11T11:41:09.126Z,335
2018-05-11T11:42:09.094Z,325
2018-05-11T11:43:08.533Z,325
2018-05-11T11:44:08.509Z,320
2018-05-11T11:45:08.796Z,315
2018-05-11T11:46:08.756Z,310
2018-05-11T11:47:08.518Z,310
2018-05-11T11:48:08.778Z,305
2018-05-11T11:49:07.977Z,320
2018-05-11T11:50:08.220Z,330
2018-05-11T11:51:08.484Z,335
2018-05-11T11:52:08.772Z,340
2018-05-11T11:53:08.762Z,355
2018-05-11T11:54:08.770Z,360
2018-05-11T11:55:08.738Z,350
2018-05-11T11:56:08.769Z,345
2018-05-11T11:57:08.456Z,340
2018-05-11T11:58:08.778Z,325
2018-05-11T11:59:08.195Z,330
2018-05-11T12:00:08.759Z,320
2018-05-11T12:01:08.486Z,320
2018-05-11T12:02:08.476Z,315
2018-05-11T12:03:08.779Z,305
2018-05-11T12:04:08.240Z,305
2018-05-11T12:05:08.229Z,310
2018-05-11T12:06:08.730Z,320
2018-05-11T12:07:08.724Z,330
2018-05-11T12:08:08.762Z,335
2018-05-11T12:09:09.130Z,325
2018-05-11T12:10:08.501Z,310
2018-05-11T12:11:08.452Z,285
2018-05-11T12:12:08.780Z,260
2018-05-11T12:13:08.453Z,250
2018-05-11T12:14:08.737Z,245
2018-05-11T12:15:08.479Z,245
2018-05-11T12:16:08.743Z,250
2018-05-11T12:17:08.204Z,250
2018-05-11T12:18:08.470Z,250
2018-05-11T12:19:08.713Z,250
2018-05-11T12:20:08.767Z,250
2018-05-11T12:21:08.185Z,255
2018-05-11T12:22:08.736Z,255
2018-05-11T12:23:08.485Z,255
2018-05-11T12:24:08.430Z,255
2018-05-11T12:25:08.693Z,260
2018-05-11T12:26:08.721Z,260
2018-05-11T12:27:08.671Z,265
2018-05-11T12:28:08.714Z,270
2018-05-11T12:29:08.420Z,270
2018-05-11T12:30:08.446Z,265
2018-05-11T12:31:08.401Z,255
2018-05-11T12:32:08.720Z,255
2018-05-11T12:33:08.682Z,250
2018-05-11T12:34:08.710Z,260
2018-05-11T12:35:08.448Z,280
2018-05-11T12:36:07.900Z,300
2018-05-11T12:37:08.416Z,320
2018-05-11T12:38:08.692Z,330
2018-05-11T12:39:08.692Z,345
2018-05-11T12:40:08.676Z,365
2018-05-11T12:41:08.998Z,370
2018-05-11T12:42:08.663Z,370
2018-05-11T12:43:08.691Z,380
2018-05-11T12:44:08.650Z,415
2018-05-11T12:45:08.437Z,430
2018-05-11T12:46:08.394Z,440
2018-05-11T12:47:07.918Z,460
2018-05-11T12:48:08.628Z,480
2018-05-11T12:49:08.141Z,485
2018-05-11T12:50:07.875Z,495
2018-05-11T12:51:08.421Z,505
2018-05-11T12:52:08.388Z,520
2018-05-11T12:53:08.329Z,530
2018-05-11T12:54:08.420Z,535
2018-05-11T12:55:08.433Z,535
2018-05-11T12:56:08.386Z,530
2018-05-11T12:57:08.644Z,505
2018-05-11T12:58:08.359Z,495
2018-05-11T12:59:08.153Z,490
2018-05-11T13:00:08.381Z,500
2018-05-11T13:01:08.423Z,520
2018-05-11T13:02:08.132Z,530
2018-05-11T13:03:08.421Z,520
2018-05-11T13:04:08.622Z,500
2018-05-11T13:05:08.667Z,475
2018-05-11T13:06:08.125Z,460
2018-05-11T13:07:08.271Z,440
2018-05-11T13:08:08.762Z,425
2018-05-11T13:09:08.396Z,415
2018-05-11T13:10:08.130Z,410
2018-05-11T13:11:08.116Z,415
2018-05-11T13:12:08.667Z,415
2018-05-11T13:13:08.830Z,425
2018-05-11T13:14:08.467Z,435
2018-05-11T13:15:08.118Z,435
2018-05-11T13:16:08.152Z,430
2018-05-11T13:17:08.170Z,415
2018-05-11T13:18:08.629Z,395
2018-05-11T13:19:08.431Z,375
2018-05-11T13:20:08.387Z,365
2018-05-11T13:21:08.161Z,375
2018-05-11T13:22:08.639Z,390
2018-05-11T13:23:08.677Z,400
2018-05-11T13:24:08.630Z,400
2018-05-11T13:25:08.700Z,385
2018-05-11T13:26:08.664Z,375
2018-05-11T13:27:08.122Z,370
2018-05-11T13:28:08.147Z,360
2018-05-11T13:29:08.413Z,355
2018-05-11T13:30:08.423Z,350
2018-05-11T13:31:08.396Z,340
2018-05-11T13:32:08.446Z,330
2018-05-11T13:33:08.355Z,325
2018-05-11T13:34:08.671Z,320
2018-05-11T13:35:08.637Z,305
2018-05-11T13:36:08.705Z,310
2018-05-11T13:37:08.136Z,300
2018-05-11T13:38:08.156Z,290
2018-05-11T13:39:08.442Z,280
2018-05-11T13:40:08.737Z,270
2018-05-11T13:41:08.395Z,270
2018-05-11T13:42:08.934Z,270
2018-05-11T13:43:08.380Z,270
2018-05-11T13:44:08.426Z,270
2018-05-11T13:45:08.647Z,270
2018-05-11T13:46:08.413Z,265
2018-05-11T13:47:08.112Z,260
2018-05-11T13:48:08.493Z,260
2018-05-11T13:49:08.627Z,260
2018-05-11T13:50:08.413Z,260
2018-05-11T13:51:08.103Z,260
2018-05-11T13:52:07.632Z,255
2018-05-11T13:53:08.136Z,250
2018-05-11T13:54:08.739Z,250
2018-05-11T13:55:08.114Z,250
2018-05-11T13:56:08.219Z,250
2018-05-11T13:57:08.636Z,250
2018-05-11T13:58:08.618Z,245
2018-05-11T13:59:08.093Z,240
2018-05-11T14:00:08.649Z,235
2018-05-11T14:01:08.629Z,230
2018-05-11T14:02:08.411Z,230
2018-05-11T14:03:08.354Z,235
2018-05-11T14:04:08.385Z,240
2018-05-11T14:05:08.088Z,250
2018-05-11T14:06:08.378Z,260